ペトロパブロフスク・カムチャツキー の空港の天気 - METARとTAF

ペトロパブロフスク・カムチャツキー空港 ( UHPP / PKC ) - ロシア ペトロパブロフスク・カムチャツキー
飛行場実況気象(Metar)
観測時間03/30 23:00 +11 (03/30 12:00 UTC)
風向・風速北 1m/s
視程10km以上
天気現象
全天の4割程度の雲 雲底高度 1400m
気温0℃
湿度80%
気圧1010hPa
METARUHPP 301200Z 35001MPS 9999 SCT046 M00/M03 Q1010 R34L/CLRD70 NOSIG RMK QFE754/1005
過去の天気等 Google飛行場航空写真 Wunderground天気予報

過去48時間のMETAR

飛行場予報(TAF)
発表時間: 3/30 21:54 +11 (3/30 10:54 UTC)
予報対象時間: 30日23時 +11 ~ 1日5時 +11
風向・風速北北東 3m/s 瞬間風速 12m/s
視程10km以上
全天の4割程度の積乱雲 雲底高度 910m
全天の8割程度の雲 雲底高度 1,830m
31日11時 +11 から
風向・風速南 3m/s 瞬間風速 10m/s
視程10km以上
全天の8割程度の積乱雲 雲底高度 910m
31日23時 +11 から
風向・風速北 3m/s 瞬間風速 8m/s
視程10km以上
全天の4割程度の積乱雲 雲底高度 910m
全天の8割程度の雲 雲底高度 1,830m
TAF UHPP 301054Z 3012/3118 02003G12MPS 9999 SCT030CB BKN060
FM310000 18003G10MPS 9999 BKN030CB
FM311200 36003G08MPS 9999 SCT030CB BKN060